Time;durP1;ratioP1;P1;durP2;ratioP2;P2;SDS_P1;SDS_P2;PMS_P1;PMS_P2;Temp;Humidity;BMP_temperature;BMP_pressure;BME280_temperature;BME280_humidity;BME280_pressure;Samples;Min_cycle;Max_cycle;Signal;HPM_P1;HPM_P2
2021/09/10 04:14:01;;;;;;;2.20;1.80;;;17.10;99.90;;;;;;4973227;28;20468;-82
2021/09/10 05:26:20;;;;;;;2.80;1.10;;;16.80;99.90;;;;;;4971932;28;20456;-86
2021/09/10 05:32:25;;;;;;;4.30;1.20;;;16.90;99.90;;;;;;4917607;29;20894;-86
2021/09/10 05:35:19;;;;;;;0.90;0.87;;;17.00;99.90;;;;;;4976364;28;20547;-85
2021/09/10 05:37:49;;;;;;;2.23;0.83;;;17.00;99.90;;;;;;4976693;28;21020;-87
2021/09/10 05:40:16;;;;;;;2.43;1.70;;;17.20;99.90;;;;;;4978224;28;20504;-87
2021/09/10 05:42:43;;;;;;;1.03;0.90;;;17.30;99.90;;;;;;4978008;28;20469;-83
2021/09/10 05:45:12;;;;;;;2.67;1.53;;;17.30;99.90;;;;;;4977267;28;20437;-83
2021/09/10 05:47:38;;;;;;;3.53;1.10;;;17.40;99.90;;;;;;4977102;28;20456;-83
2021/09/10 05:50:06;;;;;;;3.13;2.13;;;17.50;99.90;;;;;;4977175;28;20456;-83
2021/09/10 05:52:32;;;;;;;2.30;1.77;;;17.50;99.90;;;;;;4977044;28;20498;-82
2021/09/10 05:54:59;;;;;;;1.37;1.10;;;17.60;99.90;;;;;;4976953;28;20905;-82
2021/09/10 05:57:26;;;;;;;1.80;1.37;;;17.70;99.90;;;;;;4976970;28;20437;-82
2021/09/10 05:59:53;;;;;;;2.87;1.13;;;17.70;99.90;;;;;;4976604;28;21000;-82
2021/09/10 06:02:22;;;;;;;1.33;0.97;;;17.80;99.90;;;;;;4976992;28;20484;-82
2021/09/10 06:04:49;;;;;;;2.30;1.53;;;17.80;99.90;;;;;;4976579;28;20495;-82
2021/09/10 06:07:15;;;;;;;3.47;1.60;;;17.90;99.90;;;;;;4976603;28;20481;-82
2021/09/10 06:09:42;;;;;;;1.20;1.10;;;17.90;99.90;;;;;;4976727;28;20528;-82
2021/09/10 06:12:09;;;;;;;3.00;1.40;;;18.00;99.90;;;;;;4976458;28;20516;-82
2021/09/10 06:14:36;;;;;;;2.03;1.40;;;18.00;99.90;;;;;;4976750;28;20437;-82
2021/09/10 06:17:03;;;;;;;4.10;1.23;;;18.10;99.90;;;;;;4976701;28;20438;-82
2021/09/10 06:19:31;;;;;;;3.20;1.77;;;18.10;99.90;;;;;;4976331;28;21015;-82
2021/09/10 06:21:58;;;;;;;1.73;1.43;;;18.20;99.90;;;;;;4976222;28;20473;-82
2021/09/10 06:24:25;;;;;;;2.00;1.37;;;18.40;99.90;;;;;;4976165;28;20445;-82
2021/09/10 06:26:52;;;;;;;4.80;1.67;;;18.50;99.90;;;;;;4975852;28;20444;-82
2021/09/10 06:29:18;;;;;;;3.40;1.60;;;18.60;99.90;;;;;;4976025;28;20988;-83
2021/09/10 06:31:47;;;;;;;3.70;1.80;;;18.80;99.90;;;;;;4976323;28;20484;-83
2021/09/10 06:34:18;;;;;;;1.40;1.30;;;18.80;99.90;;;;;;4975929;28;20952;-83
2021/09/10 06:36:47;;;;;;;1.20;1.10;;;18.90;99.90;;;;;;4976043;28;20913;-83
2021/09/10 06:39:13;;;;;;;2.17;1.60;;;19.00;99.90;;;;;;4976186;28;20473;-83
2021/09/10 06:41:40;;;;;;;4.70;1.87;;;19.00;99.90;;;;;;4976223;28;20426;-82
2021/09/10 06:44:07;;;;;;;3.97;2.17;;;19.20;99.90;;;;;;4976124;28;20798;-83
2021/09/10 06:46:33;;;;;;;1.97;1.57;;;19.30;99.90;;;;;;4976192;28;20410;-83
2021/09/10 06:49:00;;;;;;;5.17;1.60;;;19.30;99.90;;;;;;4975991;28;20473;-83
2021/09/10 06:51:28;;;;;;;1.93;1.20;;;19.40;99.90;;;;;;4975873;28;20481;-83
2021/09/10 06:53:56;;;;;;;1.67;1.57;;;19.50;99.90;;;;;;4975666;28;20964;-83
2021/09/10 06:56:22;;;;;;;1.63;1.40;;;19.70;99.90;;;;;;4975938;28;20460;-84
2021/09/10 06:58:49;;;;;;;3.90;1.97;;;19.80;99.90;;;;;;4975834;28;20473;-83
2021/09/10 07:01:16;;;;;;;1.70;1.50;;;19.90;99.90;;;;;;4975822;28;20472;-82
2021/09/10 07:03:42;;;;;;;4.47;2.50;;;20.00;99.90;;;;;;4975561;28;20429;-83
2021/09/10 07:06:09;;;;;;;1.33;1.23;;;20.00;99.90;;;;;;4975770;28;20456;-83
2021/09/10 07:08:36;;;;;;;2.40;1.60;;;19.90;99.90;;;;;;4975542;28;20472;-82
2021/09/10 07:11:04;;;;;;;1.93;1.83;;;19.90;99.90;;;;;;4975375;28;20971;-83
2021/09/10 07:13:31;;;;;;;3.07;1.47;;;19.80;99.90;;;;;;4975651;28;20433;-83
2021/09/10 07:15:58;;;;;;;2.20;1.40;;;19.70;99.90;;;;;;4976114;28;20437;-82
2021/09/10 07:18:25;;;;;;;4.60;1.80;;;19.70;99.90;;;;;;4975067;28;20980;-83
2021/09/10 07:20:51;;;;;;;2.50;1.77;;;19.70;99.90;;;;;;4975334;28;20445;-83
2021/09/10 07:23:18;;;;;;;2.20;1.23;;;19.60;99.90;;;;;;4975137;28;20452;-80
2021/09/10 07:25:45;;;;;;;3.50;1.63;;;19.60;99.90;;;;;;4975259;28;20460;-80
2021/09/10 07:28:13;;;;;;;1.80;1.60;;;19.70;99.90;;;;;;4974977;28;20884;-80
2021/09/10 07:30:40;;;;;;;1.17;1.07;;;19.80;99.90;;;;;;4975315;28;20844;-82
2021/09/10 07:33:06;;;;;;;1.90;1.70;;;19.80;99.90;;;;;;4975167;28;20496;-82
2021/09/10 07:35:33;;;;;;;2.80;1.30;;;19.90;99.90;;;;;;4974991;28;20960;-82
2021/09/10 07:38:00;;;;;;;1.63;1.50;;;20.00;99.90;;;;;;4974992;28;20469;-82
2021/09/10 07:40:26;;;;;;;2.13;1.13;;;20.10;99.90;;;;;;4974835;28;20452;-82
2021/09/10 07:42:53;;;;;;;4.60;1.73;;;20.00;99.90;;;;;;4974894;28;20441;-82
2021/09/10 07:45:21;;;;;;;4.17;1.93;;;20.10;99.90;;;;;;4975015;28;20459;-80
2021/09/10 07:47:48;;;;;;;2.50;1.50;;;20.20;99.90;;;;;;4974901;28;20547;-80
2021/09/10 07:50:15;;;;;;;2.13;1.93;;;20.30;99.90;;;;;;4974655;28;20872;-80
2021/09/10 07:52:41;;;;;;;3.17;1.57;;;20.50;99.90;;;;;;4974923;28;20532;-80
2021/09/10 07:55:09;;;;;;;1.63;1.27;;;20.50;99.90;;;;;;4974887;28;20463;-80
2021/09/10 07:57:36;;;;;;;1.47;1.37;;;20.50;99.90;;;;;;4974727;28;20456;-80
2021/09/10 08:00:03;;;;;;;4.60;2.00;;;20.60;99.90;;;;;;4974457;28;20481;-80
2021/09/10 08:02:32;;;;;;;1.70;1.60;;;20.60;99.90;;;;;;4974862;28;20429;-79
2021/09/10 08:04:59;;;;;;;3.63;1.90;;;20.60;99.90;;;;;;4974780;28;20437;-79
2021/09/10 08:07:26;;;;;;;1.57;1.47;;;20.70;99.90;;;;;;4974677;28;20445;-79
2021/09/10 08:09:53;;;;;;;1.53;1.10;;;20.80;99.90;;;;;;4974603;28;20452;-79
2021/09/10 08:12:21;;;;;;;1.83;1.50;;;20.80;99.90;;;;;;4975468;28;20476;-79
2021/09/10 08:14:48;;;;;;;1.93;1.30;;;20.80;99.90;;;;;;4974698;28;20437;-79
2021/09/10 08:17:14;;;;;;;4.17;1.27;;;21.10;99.90;;;;;;4974639;28;20444;-79
2021/09/10 08:19:42;;;;;;;1.80;1.43;;;21.30;99.90;;;;;;4974716;28;20472;-80
2021/09/10 08:22:09;;;;;;;1.70;1.60;;;21.40;99.90;;;;;;4974165;28;20991;-80
2021/09/10 08:24:36;;;;;;;1.37;1.20;;;21.40;99.90;;;;;;4974218;28;20433;-80
2021/09/10 08:27:04;;;;;;;2.43;1.47;;;21.40;99.90;;;;;;4975093;28;20440;-80
2021/09/10 08:29:30;;;;;;;3.00;1.80;;;21.50;99.90;;;;;;4974483;28;20468;-81
2021/09/10 08:31:57;;;;;;;1.90;1.30;;;21.40;99.90;;;;;;4974427;28;20476;-81
2021/09/10 08:34:24;;;;;;;3.60;1.80;;;21.50;99.90;;;;;;4974085;28;20943;-81
2021/09/10 08:36:52;;;;;;;1.60;1.20;;;21.50;99.90;;;;;;4974520;28;20433;-79
2021/09/10 08:39:19;;;;;;;1.53;1.20;;;21.50;99.90;;;;;;4974080;28;21006;-80
2021/09/10 08:41:45;;;;;;;1.63;1.50;;;21.50;99.90;;;;;;4974517;28;20437;-79
2021/09/10 08:44:13;;;;;;;1.77;1.33;;;21.60;99.90;;;;;;4974466;28;20414;-79
2021/09/10 08:46:44;;;;;;;3.47;1.83;;;21.70;99.90;;;;;;4974097;28;20927;-79
2021/09/10 08:49:12;;;;;;;2.53;1.27;;;21.70;99.90;;;;;;4974670;28;20465;-79
2021/09/10 08:51:38;;;;;;;2.13;1.93;;;21.80;99.90;;;;;;4977935;28;20460;-79
2021/09/10 08:54:07;;;;;;;2.93;1.83;;;21.70;99.90;;;;;;4977929;28;20422;-79
2021/09/10 08:56:33;;;;;;;1.50;1.37;;;21.60;99.90;;;;;;4977956;28;20769;-79
2021/09/10 08:59:08;;;;;;;2.93;2.07;;;21.60;99.90;;;;;;4977979;28;20485;-79
2021/09/10 09:01:35;;;;;;;2.63;1.47;;;21.40;99.90;;;;;;4977964;28;20428;-79
2021/09/10 09:04:05;;;;;;;1.47;1.10;;;21.30;99.90;;;;;;4977842;28;20429;-81
2021/09/10 09:06:33;;;;;;;1.23;1.13;;;21.20;99.90;;;;;;4977924;28;20442;-81
2021/09/10 09:09:00;;;;;;;1.63;1.17;;;21.30;99.90;;;;;;4977914;28;20476;-80
2021/09/10 09:11:28;;;;;;;3.40;1.43;;;21.40;99.90;;;;;;4977818;28;20417;-79
2021/09/10 09:13:55;;;;;;;3.03;1.73;;;21.50;99.90;;;;;;4977491;28;20968;-79
2021/09/10 09:16:24;;;;;;;3.30;1.70;;;21.90;99.90;;;;;;4977440;28;20436;-79
2021/09/10 09:18:53;;;;;;;1.87;1.40;;;22.10;99.90;;;;;;4977670;28;20465;-79
2021/09/10 09:21:26;;;;;;;3.00;1.47;;;22.10;99.90;;;;;;4977058;28;20849;-79
2021/09/10 09:23:54;;;;;;;1.83;1.70;;;22.10;99.90;;;;;;4977144;28;20296;-79
2021/09/10 09:26:22;;;;;;;1.73;1.17;;;22.20;99.90;;;;;;4977212;28;20931;-79
2021/09/10 09:29:03;;;;;;;3.23;2.10;;;22.10;99.90;;;;;;4977059;28;20468;-79
2021/09/10 09:31:29;;;;;;;1.87;1.17;;;22.10;99.90;;;;;;4977432;28;20194;-79
2021/09/10 09:33:56;;;;;;;2.90;1.77;;;22.10;99.90;;;;;;4977240;28;20209;-80
2021/09/10 09:36:23;;;;;;;1.53;1.10;;;22.10;99.90;;;;;;4977703;28;20190;-80
2021/09/10 09:38:50;;;;;;;2.20;1.70;;;22.00;99.90;;;;;;4978789;28;20742;-80
2021/09/10 09:41:18;;;;;;;4.50;2.00;;;22.00;99.90;;;;;;4981212;28;20201;-80
2021/09/10 09:43:47;;;;;;;2.57;1.73;;;22.00;99.90;;;;;;4980808;28;20440;-81
2021/09/10 09:46:16;;;;;;;1.90;1.23;;;22.10;99.90;;;;;;4977710;28;20724;-80
2021/09/10 09:48:46;;;;;;;1.13;1.13;;;22.00;99.90;;;;;;4977397;28;20222;-80
2021/09/10 09:51:15;;;;;;;2.70;1.43;;;21.90;99.90;;;;;;4977562;28;20432;-79
2021/09/10 09:53:43;;;;;;;5.00;2.20;;;22.20;99.90;;;;;;4977914;28;20300;-79
2021/09/10 09:56:11;;;;;;;3.20;1.70;;;22.40;99.90;;;;;;4977135;28;20436;-80
2021/09/10 09:58:40;;;;;;;1.30;1.20;;;22.60;99.90;;;;;;4977050;28;20233;-80
2021/09/10 10:01:09;;;;;;;3.50;1.60;;;22.60;99.90;;;;;;4975765;28;20190;-80
2021/09/10 10:03:39;;;;;;;4.95;2.08;;;22.80;99.90;;;;;;4977242;28;20198;-80
2021/09/10 10:06:12;;;;;;;3.42;1.90;;;22.90;99.90;;;;;;4977427;28;20201;-80
2021/09/10 10:08:43;;;;;;;1.40;1.13;;;23.00;99.90;;;;;;4976640;28;20229;-81
2021/09/10 10:11:16;;;;;;;2.27;1.93;;;23.10;99.90;;;;;;4976893;28;20660;-81
2021/09/10 10:13:43;;;;;;;5.13;1.57;;;23.10;99.90;;;;;;4976474;28;20232;-80
2021/09/10 10:16:34;;;;;;;2.42;1.60;;;23.10;99.90;;;;;;4976813;28;20194;-80
2021/09/10 10:19:03;;;;;;;3.28;1.50;;;23.10;99.90;;;;;;4976692;28;20221;-80
2021/09/10 10:21:48;;;;;;;3.25;1.58;;;23.00;99.90;;;;;;4976204;28;20229;-80
2021/09/10 10:24:37;;;;;;;2.10;1.52;;;23.00;99.90;;;;;;4976927;28;20186;-82
2021/09/10 10:27:26;;;;;;;2.90;1.50;;;23.10;99.90;;;;;;4976568;28;20206;-79
2021/09/10 10:29:53;;;;;;;2.58;1.27;;;23.30;99.90;;;;;;4976178;28;20287;-79
2021/09/10 10:32:33;;;;;;;2.77;1.53;;;23.40;99.90;;;;;;4976434;28;20185;-81
2021/09/10 10:35:16;;;;;;;1.55;1.33;;;23.20;99.90;;;;;;4976496;28;20197;-80
2021/09/10 10:37:45;;;;;;;1.52;1.42;;;23.10;99.90;;;;;;4976352;28;20293;-81
2021/09/10 10:40:30;;;;;;;2.90;2.38;;;23.00;99.90;;;;;;4976029;28;20196;-81
2021/09/10 10:42:59;;;;;;;3.53;1.83;;;23.10;99.90;;;;;;4976201;28;20192;-80
2021/09/10 10:46:12;;;;;;;3.53;1.83;;;23.20;99.90;;;;;;4976323;28;20225;-80
2021/09/10 10:48:49;;;;;;;1.50;1.40;;;23.40;99.90;;;;;;4975785;28;20716;-80
2021/09/10 10:51:44;;;;;;;2.80;1.77;;;24.00;99.90;;;;;;4976218;28;20283;-81
2021/09/10 10:54:13;;;;;;;2.75;1.90;;;24.80;99.90;;;;;;4975775;28;20217;-86
2021/09/10 10:56:42;;;;;;;1.98;1.48;;;25.40;99.90;;;;;;4975817;28;20178;-80
2021/09/10 10:59:28;;;;;;;1.35;1.23;;;25.80;99.90;;;;;;4977034;28;20723;-79
2021/09/10 11:02:28;;;;;;;3.42;2.13;;;26.40;99.90;;;;;;4975902;28;20660;-80
2021/09/10 11:05:00;;;;;;;1.70;1.60;;;26.20;99.90;;;;;;4975741;28;20189;-80
2021/09/10 11:07:28;;;;;;;2.30;1.70;;;25.80;99.90;;;;;;4975454;28;20186;-80
2021/09/10 11:10:01;;;;;;;2.67;1.60;;;25.30;99.90;;;;;;4975652;28;20225;-79
2021/09/10 11:12:28;;;;;;;3.10;1.48;;;24.90;99.90;;;;;;4975862;28;20668;-80
2021/09/10 11:14:55;;;;;;;4.10;1.85;;;24.60;99.90;;;;;;4975660;28;20275;-80
2021/09/10 11:17:26;;;;;;;2.08;1.88;;;24.60;99.90;;;;;;4975183;28;20281;-80
2021/09/10 11:19:54;;;;;;;1.92;1.45;;;24.70;99.90;;;;;;4975637;28;20318;-80
2021/09/10 11:22:21;;;;;;;2.30;1.65;;;24.70;99.90;;;;;;4975016;28;20237;-79
2021/09/10 11:24:48;;;;;;;2.88;1.63;;;24.60;99.90;;;;;;4975502;28;20192;-80
2021/09/10 11:27:27;;;;;;;7.78;1.55;;;24.40;99.90;;;;;;4976093;28;20551;-80
2021/09/10 11:29:54;;;;;;;3.00;2.08;;;24.40;99.90;;;;;;4975349;28;20233;-80
2021/09/10 11:32:23;;;;;;;1.98;1.67;;;24.30;99.90;;;;;;4974934;28;20194;-80
2021/09/10 11:34:50;;;;;;;4.15;2.15;;;24.30;99.90;;;;;;4975220;28;20304;-80
2021/09/10 11:37:25;;;;;;;1.58;1.48;;;24.40;99.90;;;;;;4975377;28;20186;-80
2021/09/10 11:39:53;;;;;;;3.05;1.60;;;24.40;99.90;;;;;;4975177;28;20276;-80
2021/09/10 11:42:36;;;;;;;2.65;1.77;;;24.20;99.90;;;;;;4975189;28;20193;-80
2021/09/10 11:45:08;;;;;;;3.50;1.75;;;23.90;99.90;;;;;;4973483;28;20228;-80
2021/09/10 11:47:36;;;;;;;3.08;1.77;;;23.90;99.90;;;;;;4975140;28;20189;-80
2021/09/10 11:50:08;;;;;;;4.50;1.63;;;23.80;99.90;;;;;;4974726;28;20236;-79
2021/09/10 11:52:37;;;;;;;1.23;1.10;;;23.80;99.90;;;;;;4974901;28;20197;-79
2021/09/10 11:55:09;;;;;;;1.38;1.20;;;23.90;99.90;;;;;;4974682;28;20190;-79
2021/09/10 11:57:37;;;;;;;1.48;1.30;;;24.00;99.90;;;;;;4974965;28;20194;-80
2021/09/10 12:00:06;;;;;;;3.15;2.22;;;23.90;99.90;;;;;;4975384;28;20217;-80
2021/09/10 12:02:34;;;;;;;2.95;1.75;;;23.90;99.90;;;;;;4974857;28;20197;-80
2021/09/10 12:05:02;;;;;;;4.70;2.20;;;24.00;99.90;;;;;;4974537;28;20245;-80
2021/09/10 12:07:30;;;;;;;1.55;1.40;;;24.00;99.90;;;;;;4974817;28;20323;-79
2021/09/10 12:09:56;;;;;;;2.60;2.30;;;24.10;99.90;;;;;;4974715;28;20233;-80
2021/09/10 12:12:24;;;;;;;3.05;2.03;;;24.10;99.90;;;;;;4974752;28;20189;-79
2021/09/10 12:15:01;;;;;;;1.45;1.35;;;24.10;99.90;;;;;;4974673;28;20214;-80
2021/09/10 12:17:33;;;;;;;2.17;1.77;;;24.00;99.90;;;;;;4974745;28;20240;-80
2021/09/10 12:20:09;;;;;;;2.15;1.50;;;23.80;99.90;;;;;;4974602;28;20230;-79
2021/09/10 12:22:56;;;;;;;2.40;2.00;;;23.70;99.90;;;;;;4974203;28;20711;-78
2021/09/10 12:25:35;;;;;;;3.05;1.60;;;23.80;99.90;;;;;;4974111;28;20248;-78
2021/09/10 12:28:26;;;;;;;2.95;1.88;;;23.90;99.90;;;;;;4974120;28;20631;-78
2021/09/10 12:30:59;;;;;;;2.28;1.52;;;23.80;99.90;;;;;;4974554;28;20186;-77
2021/09/10 12:33:28;;;;;;;1.50;1.40;;;23.80;99.90;;;;;;4974397;28;20232;-77
2021/09/10 12:35:57;;;;;;;1.73;1.27;;;23.70;99.90;;;;;;4974275;28;20182;-77
2021/09/10 12:38:29;;;;;;;2.25;1.50;;;23.80;99.90;;;;;;4974040;28;20278;-78
2021/09/10 12:40:56;;;;;;;1.40;1.30;;;23.80;99.90;;;;;;4974140;28;20225;-77
2021/09/10 12:43:24;;;;;;;2.25;1.50;;;23.80;99.90;;;;;;4974392;28;20208;-77
2021/09/10 12:45:51;;;;;;;3.20;1.73;;;23.80;99.90;;;;;;4974443;28;20209;-75
2021/09/10 12:48:19;;;;;;;1.42;1.33;;;23.90;99.90;;;;;;4974309;28;20233;-78
2021/09/10 12:50:47;;;;;;;1.30;1.20;;;24.00;99.90;;;;;;4974240;28;20212;-78
2021/09/10 12:53:13;;;;;;;1.05;0.93;;;24.10;99.90;;;;;;4974588;28;20233;-78
2021/09/10 12:55:40;;;;;;;2.67;1.63;;;24.10;99.90;;;;;;4974215;28;20212;-78
2021/09/10 12:58:08;;;;;;;1.48;1.10;;;24.10;99.90;;;;;;4974248;28;20222;-78
2021/09/10 13:00:36;;;;;;;1.17;0.90;;;24.00;99.90;;;;;;4974300;28;20228;-80
2021/09/10 13:03:03;;;;;;;1.27;1.17;;;23.80;99.90;;;;;;4973972;28;20200;-79
2021/09/10 13:05:31;;;;;;;1.67;1.10;;;23.70;99.90;;;;;;4974319;28;20281;-79
2021/09/10 13:07:58;;;;;;;2.00;1.10;;;23.60;99.90;;;;;;4974138;28;20210;-79
2021/09/10 13:10:25;;;;;;;1.77;1.30;;;23.60;99.90;;;;;;4974228;28;20208;-79
2021/09/10 13:12:52;;;;;;;1.10;0.95;;;23.60;99.90;;;;;;4973875;28;20205;-79
2021/09/10 13:15:19;;;;;;;0.90;0.90;;;23.50;99.90;;;;;;4974084;28;20225;-79
2021/09/10 13:17:45;;;;;;;1.08;0.98;;;23.40;99.90;;;;;;4974058;28;20213;-79
2021/09/10 13:20:13;;;;;;;3.22;1.17;;;23.30;99.90;;;;;;4974088;28;20209;-79
2021/09/10 13:22:41;;;;;;;1.35;1.02;;;23.20;99.90;;;;;;4973653;28;20236;-79
2021/09/10 13:25:09;;;;;;;1.52;1.20;;;23.10;99.90;;;;;;4974122;28;20211;-80
2021/09/10 13:27:36;;;;;;;1.42;1.33;;;23.10;99.90;;;;;;4974066;28;20209;-79
2021/09/10 13:30:03;;;;;;;1.10;1.00;;;23.00;99.90;;;;;;4973937;28;20229;-79
2021/09/10 13:32:31;;;;;;;1.20;1.10;;;22.90;99.90;;;;;;4973999;28;20256;-79
2021/09/10 13:34:58;;;;;;;1.40;0.88;;;22.80;99.90;;;;;;4973961;28;20312;-79
2021/09/10 13:37:26;;;;;;;1.48;1.27;;;22.80;99.90;;;;;;4977185;28;20291;-79
2021/09/10 13:39:54;;;;;;;1.00;0.88;;;22.90;99.90;;;;;;4977261;28;20221;-80
2021/09/10 13:42:21;;;;;;;1.77;1.30;;;22.90;99.90;;;;;;4977084;28;20205;-79
2021/09/10 13:44:48;;;;;;;1.23;0.97;;;22.90;99.90;;;;;;4977395;28;20190;-79
2021/09/10 13:47:15;;;;;;;1.97;1.13;;;22.90;99.90;;;;;;4977241;28;20205;-79
2021/09/10 13:49:42;;;;;;;2.37;0.80;;;22.80;99.90;;;;;;4976794;28;20716;-79
2021/09/10 13:52:08;;;;;;;2.83;1.00;;;22.80;99.90;;;;;;4976899;28;20673;-79
2021/09/10 13:54:35;;;;;;;1.43;0.90;;;22.80;99.90;;;;;;4977300;28;20473;-79
2021/09/10 13:57:03;;;;;;;1.30;0.80;;;22.80;99.90;;;;;;4977083;28;20217;-79
2021/09/10 13:59:30;;;;;;;1.00;0.90;;;22.70;99.90;;;;;;4976980;28;20248;-79
2021/09/10 14:01:58;;;;;;;2.10;1.23;;;22.70;99.90;;;;;;4977060;28;20248;-79
2021/09/10 14:04:24;;;;;;;0.90;0.80;;;22.70;99.90;;;;;;4977379;28;20311;-79
2021/09/10 14:06:51;;;;;;;0.97;0.80;;;22.90;99.90;;;;;;4977310;28;20267;-79
2021/09/10 14:09:18;;;;;;;0.90;0.90;;;22.90;99.90;;;;;;4976841;28;20229;-79
2021/09/10 14:11:45;;;;;;;1.10;1.00;;;22.90;99.90;;;;;;4976889;28;20198;-79
2021/09/10 14:14:13;;;;;;;5.90;1.27;;;22.90;99.90;;;;;;4976427;28;20703;-80
2021/09/10 14:16:40;;;;;;;1.23;1.00;;;22.90;99.90;;;;;;4976658;28;20209;-79
2021/09/10 14:19:07;;;;;;;1.23;1.13;;;22.90;99.90;;;;;;4976747;28;20247;-79
2021/09/10 14:21:34;;;;;;;1.80;1.10;;;22.90;99.90;;;;;;4976438;28;20339;-80
2021/09/10 14:24:01;;;;;;;1.30;1.20;;;22.80;99.90;;;;;;4976639;28;20197;-80
2021/09/10 14:26:28;;;;;;;1.23;1.10;;;22.80;99.90;;;;;;4976538;28;20208;-80
2021/09/10 14:28:55;;;;;;;1.40;1.10;;;22.70;99.90;;;;;;4976185;28;20217;-80
2021/09/10 14:31:23;;;;;;;2.13;1.20;;;22.70;99.90;;;;;;4976433;28;20221;-80
2021/09/10 14:33:49;;;;;;;1.10;0.80;;;22.60;99.90;;;;;;4976473;28;20224;-80
2021/09/10 14:36:16;;;;;;;1.25;1.15;;;22.60;99.90;;;;;;4976143;28;20242;-80
2021/09/10 14:38:43;;;;;;;0.83;0.80;;;22.50;99.90;;;;;;4976256;28;20232;-80
2021/09/10 14:41:10;;;;;;;1.87;1.07;;;22.50;99.90;;;;;;4976032;28;20201;-80
2021/09/10 14:43:37;;;;;;;1.30;0.90;;;22.40;99.90;;;;;;4976630;28;20571;-80
2021/09/10 14:46:04;;;;;;;1.00;0.90;;;22.40;99.90;;;;;;4975871;28;20695;-80
2021/09/10 14:48:32;;;;;;;1.03;0.70;;;22.50;99.90;;;;;;4974919;28;20227;-80
2021/09/10 14:50:58;;;;;;;2.00;1.13;;;22.40;99.90;;;;;;4976089;28;20228;-80
2021/09/10 14:53:25;;;;;;;1.17;0.70;;;22.50;99.90;;;;;;4975963;28;20217;-80
2021/09/10 14:55:52;;;;;;;1.73;0.90;;;22.40;99.90;;;;;;4975933;28;20662;-80
2021/09/10 14:58:19;;;;;;;1.07;0.97;;;22.40;99.90;;;;;;4975893;28;20229;-80
2021/09/10 15:00:46;;;;;;;0.90;0.80;;;22.40;99.90;;;;;;4975684;28;20212;-81
2021/09/10 15:03:14;;;;;;;2.87;1.30;;;22.30;99.90;;;;;;4975881;28;20215;-82
2021/09/10 15:05:42;;;;;;;2.60;1.47;;;22.30;99.90;;;;;;4975829;28;20209;-81
2021/09/10 15:08:09;;;;;;;2.50;1.13;;;22.20;99.90;;;;;;4975874;28;20229;-80
2021/09/10 15:10:36;;;;;;;1.20;1.03;;;22.20;99.90;;;;;;4975447;28;20556;-80
2021/09/10 15:13:04;;;;;;;2.13;1.00;;;22.20;99.90;;;;;;4975435;28;20216;-79
2021/09/10 15:15:31;;;;;;;1.53;1.03;;;22.20;99.90;;;;;;4975605;28;20276;-80
2021/09/10 15:17:57;;;;;;;2.20;1.00;;;22.20;99.90;;;;;;4975497;28;20453;-80
2021/09/10 15:20:24;;;;;;;1.10;1.00;;;22.20;99.90;;;;;;4975430;28;20463;-80
2021/09/10 15:22:52;;;;;;;1.30;1.17;;;22.10;99.90;;;;;;4975129;28;20493;-80
2021/09/10 15:25:19;;;;;;;2.57;1.67;;;22.20;99.90;;;;;;4975254;28;20228;-79
2021/09/10 15:27:46;;;;;;;1.27;0.90;;;22.20;99.90;;;;;;4975091;28;20213;-79
2021/09/10 15:30:13;;;;;;;2.23;1.37;;;22.20;99.90;;;;;;4975368;28;20456;-79
2021/09/10 15:32:40;;;;;;;1.67;1.00;;;22.10;99.90;;;;;;4975098;28;20594;-79
2021/09/10 15:35:07;;;;;;;1.13;0.70;;;22.10;99.90;;;;;;4975301;28;20499;-80
2021/09/10 15:37:34;;;;;;;1.97;1.10;;;22.10;99.90;;;;;;4975223;28;20460;-79
2021/09/10 15:40:02;;;;;;;1.40;1.10;;;22.10;99.90;;;;;;4974814;28;20992;-79
2021/09/10 15:42:29;;;;;;;1.93;1.30;;;22.10;99.90;;;;;;4974909;28;20437;-79
2021/09/10 15:44:56;;;;;;;2.23;1.10;;;22.00;99.90;;;;;;4974862;28;20433;-79
2021/09/10 15:47:22;;;;;;;1.67;1.37;;;22.00;99.90;;;;;;4975066;28;20248;-79
2021/09/10 15:49:49;;;;;;;1.23;1.03;;;22.00;99.90;;;;;;4974720;28;20979;-79
2021/09/10 15:52:16;;;;;;;1.70;1.00;;;21.90;99.90;;;;;;4975009;28;20436;-79
2021/09/10 15:54:42;;;;;;;1.30;1.20;;;21.90;99.90;;;;;;4975047;28;20476;-79
2021/09/10 15:57:12;;;;;;;1.07;1.00;;;21.90;99.90;;;;;;4974755;28;20777;-79
2021/09/10 15:59:39;;;;;;;1.40;1.30;;;21.90;99.90;;;;;;4974846;28;20480;-78
2021/09/10 16:02:06;;;;;;;1.43;1.30;;;21.90;99.90;;;;;;4974638;28;20443;-79
2021/09/10 16:04:33;;;;;;;1.73;1.63;;;21.80;99.90;;;;;;4974468;28;20437;-79
2021/09/10 16:07:01;;;;;;;3.03;1.60;;;21.80;99.90;;;;;;4974978;28;20194;-78
2021/09/10 16:09:27;;;;;;;3.70;1.37;;;21.80;99.90;;;;;;4974742;28;20657;-79
2021/09/10 16:11:54;;;;;;;1.37;1.27;;;21.70;99.90;;;;;;4974446;28;20812;-79
2021/09/10 16:14:22;;;;;;;1.67;1.23;;;21.70;99.90;;;;;;4974680;28;20469;-79
2021/09/10 16:16:49;;;;;;;1.30;1.20;;;21.60;99.90;;;;;;4974742;28;20414;-79
2021/09/10 16:19:16;;;;;;;1.30;1.20;;;21.60;99.90;;;;;;4974325;28;20484;-79
2021/09/10 16:21:43;;;;;;;1.43;1.00;;;21.60;99.90;;;;;;4974425;28;20490;-79
2021/09/10 16:24:10;;;;;;;1.60;1.23;;;21.50;99.90;;;;;;4974589;28;20456;-79
2021/09/10 16:26:37;;;;;;;2.30;1.63;;;21.50;99.90;;;;;;4974614;28;20433;-79
2021/09/10 16:29:04;;;;;;;2.43;2.00;;;21.50;99.90;;;;;;4974206;28;21015;-79
2021/09/10 16:31:32;;;;;;;1.33;1.17;;;21.50;99.90;;;;;;4974532;28;20444;-79
2021/09/10 16:34:00;;;;;;;2.90;1.37;;;21.50;99.90;;;;;;4974466;28;20886;-79
2021/09/10 16:36:27;;;;;;;1.47;1.30;;;21.40;99.90;;;;;;4974690;28;20469;-79
2021/09/10 16:38:54;;;;;;;2.27;1.40;;;21.40;99.90;;;;;;4974087;28;20813;-79
2021/09/10 16:41:22;;;;;;;1.83;1.40;;;21.40;99.90;;;;;;4974145;28;20444;-79
2021/09/10 16:43:49;;;;;;;4.60;1.20;;;21.30;99.90;;;;;;4974396;28;20433;-79
2021/09/10 16:46:16;;;;;;;2.90;1.80;;;21.30;99.90;;;;;;4974367;28;20436;-79
2021/09/10 16:48:44;;;;;;;1.77;1.00;;;21.20;99.90;;;;;;4974344;28;20501;-79
2021/09/10 16:51:11;;;;;;;1.37;1.27;;;21.20;99.90;;;;;;4974434;28;20446;-79
2021/09/10 16:53:40;;;;;;;1.67;1.13;;;21.10;99.90;;;;;;4974405;28;20440;-79
2021/09/10 16:56:07;;;;;;;2.17;1.43;;;21.10;99.90;;;;;;4974227;28;20480;-79
2021/09/10 16:58:34;;;;;;;1.30;1.20;;;21.10;99.90;;;;;;4974310;28;20476;-79
2021/09/10 17:01:00;;;;;;;1.10;1.00;;;21.00;99.90;;;;;;4974005;28;20437;-80
2021/09/10 17:03:27;;;;;;;1.57;1.10;;;21.00;99.90;;;;;;4974338;28;20433;-79
2021/09/10 17:05:56;;;;;;;1.70;1.37;;;21.00;99.90;;;;;;4973989;28;20425;-80
2021/09/10 17:08:24;;;;;;;3.30;1.77;;;20.90;99.90;;;;;;4973947;28;20917;-80
2021/09/10 17:10:51;;;;;;;2.10;1.63;;;20.90;99.90;;;;;;4975320;28;20924;-80
2021/09/10 17:13:18;;;;;;;1.73;1.20;;;20.90;99.90;;;;;;4978017;28;20414;-79
2021/09/10 17:15:46;;;;;;;2.20;1.43;;;20.80;99.90;;;;;;4977615;28;20460;-79
2021/09/10 17:18:13;;;;;;;1.23;1.13;;;20.80;99.90;;;;;;4977758;28;20620;-79
2021/09/10 17:20:40;;;;;;;2.33;1.67;;;20.80;99.90;;;;;;4977754;28;20451;-79
2021/09/10 17:23:08;;;;;;;2.27;1.20;;;20.80;99.90;;;;;;4977439;28;20472;-79
2021/09/10 17:25:35;;;;;;;3.27;1.70;;;20.70;99.90;;;;;;4977368;28;20433;-79
2021/09/10 17:28:02;;;;;;;1.83;1.40;;;20.70;99.90;;;;;;4977449;28;20826;-80
2021/09/10 17:30:29;;;;;;;1.60;1.50;;;20.70;99.90;;;;;;4977677;28;20436;-80
2021/09/10 17:32:58;;;;;;;2.47;1.50;;;20.70;99.90;;;;;;4977251;28;20935;-80
2021/09/10 17:35:25;;;;;;;1.57;1.30;;;20.60;99.90;;;;;;4977461;28;20972;-80
2021/09/10 17:37:54;;;;;;;2.17;1.30;;;20.60;99.90;;;;;;4977400;28;20421;-80
2021/09/10 17:40:30;;;;;;;2.00;1.00;;;20.60;99.90;;;;;;4977480;28;20516;-80
2021/09/10 17:43:02;;;;;;;1.63;1.20;;;20.50;99.90;;;;;;4977349;28;20523;-80
2021/09/10 17:45:29;;;;;;;1.77;1.10;;;20.50;99.90;;;;;;4976932;28;20449;-80
2021/09/10 17:47:55;;;;;;;2.87;1.87;;;20.40;99.90;;;;;;4976879;28;20433;-80
2021/09/10 17:50:22;;;;;;;1.40;1.10;;;20.40;99.90;;;;;;4976934;28;20809;-80
2021/09/10 17:52:50;;;;;;;1.70;1.60;;;20.40;99.90;;;;;;4977286;28;20413;-80
2021/09/10 17:55:23;;;;;;;1.50;0.90;;;20.30;99.90;;;;;;4977160;28;20517;-80
2021/09/10 17:57:51;;;;;;;1.53;1.00;;;20.30;99.90;;;;;;4976944;28;20460;-80
2021/09/10 18:00:19;;;;;;;2.37;1.43;;;20.30;99.90;;;;;;4977020;28;20500;-82
2021/09/10 18:02:52;;;;;;;2.70;1.33;;;20.30;99.90;;;;;;4977091;28;20459;-80
2021/09/10 18:05:31;;;;;;;2.37;1.30;;;20.30;99.90;;;;;;4976913;28;20463;-80
2021/09/10 18:08:02;;;;;;;1.80;1.10;;;20.20;99.90;;;;;;4976669;28;20496;-80
2021/09/10 18:10:31;;;;;;;1.77;0.97;;;20.20;99.90;;;;;;4976737;28;20410;-80
2021/09/10 18:13:23;;;;;;;2.93;1.20;;;20.20;99.90;;;;;;4976531;28;20452;-80
2021/09/10 18:15:54;;;;;;;2.03;1.40;;;20.20;99.90;;;;;;4976703;28;20461;-80
2021/09/10 18:18:36;;;;;;;1.57;1.47;;;20.20;99.90;;;;;;4976329;28;20464;-80
2021/09/10 18:21:11;;;;;;;1.50;1.40;;;20.20;99.90;;;;;;4976382;28;20921;-80
2021/09/10 18:23:46;;;;;;;4.43;1.40;;;20.10;99.90;;;;;;4975434;28;20429;-80